createdAt,value
2018-05-27T00:02:07.803Z,4.47
2018-05-27T00:04:42.634Z,4.90
2018-05-27T00:07:17.902Z,4.20
2018-05-27T00:09:53.118Z,5.03
2018-05-27T00:12:28.058Z,4.40
2018-05-27T00:15:02.667Z,6.23
2018-05-27T00:17:37.390Z,4.23
2018-05-27T00:20:12.760Z,5.20
2018-05-27T00:22:47.329Z,5.23
2018-05-27T00:25:21.460Z,4.83
2018-05-27T00:27:56.456Z,5.37
2018-05-27T00:30:31.696Z,4.73
2018-05-27T00:33:06.337Z,5.33
2018-05-27T00:35:41.052Z,4.77
2018-05-27T00:38:15.713Z,5.00
2018-05-27T00:40:50.489Z,5.27
2018-05-27T00:43:25.507Z,5.00
2018-05-27T00:46:00.835Z,4.90
2018-05-27T00:48:35.460Z,5.03
2018-05-27T00:51:10.617Z,5.27
2018-05-27T00:53:56.305Z,5.17
2018-05-27T00:56:31.647Z,5.40
2018-05-27T00:59:06.606Z,5.40
2018-05-27T01:01:41.845Z,5.70
2018-05-27T01:04:16.548Z,6.23
2018-05-27T01:06:51.782Z,5.90
2018-05-27T01:09:26.822Z,8.10
2018-05-27T01:12:02.031Z,8.20
2018-05-27T01:14:37.374Z,5.50
2018-05-27T01:17:12.750Z,5.90
2018-05-27T01:19:47.877Z,5.87
2018-05-27T01:22:23.183Z,6.60
2018-05-27T01:24:58.357Z,6.83
2018-05-27T01:27:33.688Z,6.10
2018-05-27T01:30:09.154Z,7.40
2018-05-27T01:32:44.589Z,6.27
2018-05-27T01:35:20.033Z,6.43
2018-05-27T01:37:54.845Z,6.23
2018-05-27T01:40:29.584Z,6.90
2018-05-27T01:43:04.789Z,6.83
2018-05-27T01:45:39.779Z,7.20
2018-05-27T01:48:14.352Z,6.87
2018-05-27T01:50:49.549Z,6.33
2018-05-27T01:53:24.572Z,7.10
2018-05-27T01:55:59.941Z,6.97
2018-05-27T01:58:34.569Z,7.23
2018-05-27T02:01:09.397Z,11.20
2018-05-27T02:03:44.829Z,7.70
2018-05-27T02:06:19.358Z,6.97
2018-05-27T02:08:54.162Z,7.73
2018-05-27T02:11:29.513Z,6.77
2018-05-27T02:14:03.813Z,7.10
2018-05-27T02:16:38.393Z,7.33
2018-05-27T02:19:12.882Z,7.80
2018-05-27T02:21:48.316Z,8.00
2018-05-27T02:24:23.793Z,6.80
2018-05-27T02:26:59.169Z,9.20
2018-05-27T02:29:34.333Z,7.63
2018-05-27T02:32:10.125Z,8.07
2018-05-27T02:34:44.942Z,7.20
2018-05-27T02:37:20.191Z,7.60
2018-05-27T02:39:55.333Z,7.63
2018-05-27T02:42:30.548Z,7.90
2018-05-27T02:45:04.428Z,7.57
2018-05-27T02:47:39.566Z,8.40
2018-05-27T02:50:14.377Z,9.43
2018-05-27T02:52:49.145Z,8.53
2018-05-27T02:55:24.077Z,10.70
2018-05-27T02:57:58.825Z,7.43
2018-05-27T03:00:33.565Z,8.03
2018-05-27T03:03:08.787Z,7.90
2018-05-27T03:05:43.841Z,7.93
2018-05-27T03:08:18.841Z,8.00
2018-05-27T03:10:54.002Z,8.80
2018-05-27T03:13:29.048Z,8.90
2018-05-27T03:16:04.409Z,8.30
2018-05-27T03:18:39.616Z,8.10
2018-05-27T03:21:14.688Z,7.57
2018-05-27T03:23:49.952Z,8.20
2018-05-27T03:26:24.935Z,8.10
2018-05-27T03:29:00.016Z,6.90
2018-05-27T03:31:35.012Z,7.70
2018-05-27T03:34:10.215Z,7.20
2018-05-27T03:36:45.445Z,8.00
2018-05-27T03:39:20.819Z,7.53
2018-05-27T03:41:55.985Z,8.27
2018-05-27T03:44:31.041Z,7.37
2018-05-27T03:47:06.454Z,7.93
2018-05-27T03:49:41.184Z,7.83
2018-05-27T03:52:15.584Z,8.77
2018-05-27T03:54:50.449Z,9.43
2018-05-27T03:57:26.033Z,9.17
2018-05-27T04:00:03.006Z,8.57
2018-05-27T04:02:38.007Z,9.33
2018-05-27T04:18:47.265Z,8.10
2018-05-27T04:21:22.205Z,9.00
2018-05-27T04:23:57.025Z,13.37
2018-05-27T04:26:31.915Z,10.43
2018-05-27T04:29:06.673Z,8.50
2018-05-27T04:31:45.307Z,8.17
2018-05-27T04:34:20.208Z,8.60
2018-05-27T04:36:56.201Z,8.70
2018-05-27T04:39:30.807Z,9.87
2018-05-27T04:42:05.614Z,8.43
2018-05-27T04:44:41.191Z,9.17
2018-05-27T04:47:16.019Z,9.37
2018-05-27T04:49:50.722Z,8.90
2018-05-27T04:52:25.372Z,9.53
2018-05-27T04:55:00.155Z,9.43
2018-05-27T04:57:34.900Z,10.20
2018-05-27T05:00:09.809Z,9.77
2018-05-27T05:02:44.565Z,9.37
2018-05-27T05:05:19.241Z,9.60
2018-05-27T05:07:54.249Z,10.40
2018-05-27T05:10:29.001Z,11.03
2018-05-27T05:13:03.906Z,10.07
2018-05-27T05:15:38.646Z,11.60
2018-05-27T05:18:13.687Z,10.20
2018-05-27T05:20:48.497Z,9.73
2018-05-27T05:23:23.242Z,10.73
2018-05-27T05:25:58.073Z,10.00
2018-05-27T05:28:33.125Z,10.93
2018-05-27T05:31:08.108Z,11.37
2018-05-27T05:33:43.081Z,10.50
2018-05-27T05:36:17.970Z,10.67
2018-05-27T05:38:52.569Z,11.03
2018-05-27T05:41:27.600Z,11.57
2018-05-27T05:44:02.217Z,10.43
2018-05-27T05:46:36.916Z,11.07
2018-05-27T05:49:11.864Z,13.50
2018-05-27T05:51:46.676Z,10.70
2018-05-27T05:54:21.437Z,10.80
2018-05-27T05:56:56.228Z,10.90
2018-05-27T05:59:30.969Z,10.50
2018-05-27T06:02:05.650Z,11.67
2018-05-27T06:04:40.655Z,10.30
2018-05-27T06:07:15.464Z,12.07
2018-05-27T06:09:50.323Z,12.27
2018-05-27T06:12:25.225Z,11.50
2018-05-27T06:15:00.173Z,11.43
2018-05-27T06:17:34.820Z,10.83
2018-05-27T06:20:09.721Z,12.37
2018-05-27T06:22:44.562Z,12.23
2018-05-27T06:25:19.491Z,11.17
2018-05-27T06:27:54.326Z,11.97
2018-05-27T06:30:29.293Z,11.97
2018-05-27T06:33:04.183Z,12.20
2018-05-27T06:35:39.033Z,11.63
2018-05-27T06:38:13.853Z,10.57
2018-05-27T06:40:48.866Z,11.33
2018-05-27T06:43:23.913Z,11.60
2018-05-27T06:45:58.535Z,11.17
2018-05-27T06:48:33.380Z,12.00
2018-05-27T06:51:08.148Z,11.70
2018-05-27T06:53:43.689Z,11.40
2018-05-27T06:56:18.392Z,11.77
2018-05-27T06:58:53.349Z,11.07
2018-05-27T07:01:28.097Z,11.20
2018-05-27T07:04:02.857Z,12.00
2018-05-27T07:06:37.649Z,12.93
2018-05-27T07:09:13.163Z,12.20
2018-05-27T07:11:47.930Z,11.00
2018-05-27T07:14:22.721Z,11.93
2018-05-27T07:16:57.540Z,11.80
2018-05-27T07:19:32.439Z,12.70
2018-05-27T07:22:07.448Z,12.00
2018-05-27T07:24:42.165Z,11.57
2018-05-27T07:27:16.990Z,11.37
2018-05-27T07:29:51.906Z,11.13
2018-05-27T07:32:26.653Z,10.50
2018-05-27T07:35:01.543Z,10.73
2018-05-27T07:37:36.441Z,10.20
2018-05-27T07:40:11.244Z,11.00
2018-05-27T07:42:46.204Z,11.20
2018-05-27T07:45:21.096Z,11.30
2018-05-27T07:47:55.821Z,10.57
2018-05-27T07:50:30.893Z,10.30
2018-05-27T07:53:05.495Z,9.90
2018-05-27T07:55:40.434Z,10.13
2018-05-27T07:58:15.332Z,9.43
2018-05-27T08:00:50.109Z,9.53
2018-05-27T08:03:24.701Z,9.40
2018-05-27T08:05:59.561Z,11.00
2018-05-27T08:08:34.405Z,10.40
2018-05-27T08:11:09.382Z,10.17
2018-05-27T08:13:44.233Z,9.93
2018-05-27T08:16:18.989Z,9.93
2018-05-27T08:18:53.710Z,10.17
2018-05-27T08:21:28.446Z,11.13
2018-05-27T08:24:03.150Z,9.40
2018-05-27T08:26:37.853Z,10.20
2018-05-27T08:29:12.514Z,9.43
2018-05-27T08:31:47.448Z,9.40
2018-05-27T08:34:22.943Z,10.73
2018-05-27T08:36:58.137Z,9.17
2018-05-27T08:39:32.965Z,10.57
2018-05-27T08:42:07.794Z,9.20
2018-05-27T08:44:42.529Z,10.03
2018-05-27T08:47:17.381Z,9.33
2018-05-27T08:49:52.183Z,9.23
2018-05-27T08:52:27.029Z,9.33
2018-05-27T08:55:01.817Z,9.67
2018-05-27T08:57:36.699Z,9.67
2018-05-27T09:00:11.998Z,8.97
2018-05-27T09:02:46.717Z,9.23
2018-05-27T09:05:21.377Z,9.60
2018-05-27T09:07:56.109Z,8.63
2018-05-27T09:10:30.897Z,7.97
2018-05-27T09:13:05.660Z,9.00
2018-05-27T09:15:40.387Z,7.30
2018-05-27T09:18:15.270Z,7.50
2018-05-27T09:20:50.168Z,7.17
2018-05-27T09:23:24.877Z,8.37
2018-05-27T09:25:59.788Z,7.40
2018-05-27T09:28:34.601Z,7.07
2018-05-27T09:31:09.077Z,7.10
2018-05-27T09:33:43.869Z,6.57
2018-05-27T09:36:18.784Z,7.77
2018-05-27T09:38:53.650Z,7.67
2018-05-27T09:41:28.500Z,8.17
2018-05-27T09:44:03.296Z,7.60
2018-05-27T09:46:38.458Z,7.43
2018-05-27T09:49:13.198Z,7.93
2018-05-27T09:51:47.824Z,7.47
2018-05-27T09:54:22.859Z,6.83
2018-05-27T09:56:57.802Z,8.73
2018-05-27T09:59:32.584Z,9.70
2018-05-27T10:02:07.786Z,9.60
2018-05-27T10:04:42.768Z,9.00
2018-05-27T10:07:17.592Z,10.07
2018-05-27T10:09:52.578Z,8.97
2018-05-27T10:12:27.403Z,9.27
2018-05-27T10:15:02.133Z,9.27
2018-05-27T10:17:36.901Z,10.03
2018-05-27T10:20:11.888Z,9.13
2018-05-27T10:22:46.837Z,9.77
2018-05-27T10:25:21.580Z,8.80
2018-05-27T10:27:56.502Z,8.73
2018-05-27T10:30:31.454Z,8.07
2018-05-27T10:33:06.413Z,9.70
2018-05-27T10:35:41.013Z,9.00
2018-05-27T10:38:15.706Z,8.90
2018-05-27T10:40:50.849Z,9.73
2018-05-27T10:43:25.574Z,9.13
2018-05-27T10:46:00.596Z,9.97
2018-05-27T10:48:35.047Z,9.37
2018-05-27T10:51:10.158Z,9.30
2018-05-27T10:53:44.773Z,9.47
2018-05-27T10:56:19.716Z,8.70
2018-05-27T10:58:54.602Z,9.63
2018-05-27T11:01:29.214Z,9.10
2018-05-27T11:04:04.042Z,8.40
2018-05-27T11:06:38.849Z,10.13
2018-05-27T11:09:13.732Z,8.40
2018-05-27T11:11:48.608Z,9.07
2018-05-27T11:14:23.249Z,9.50
2018-05-27T11:16:58.066Z,9.33
2018-05-27T11:19:32.714Z,8.50
2018-05-27T11:22:07.666Z,9.83
2018-05-27T11:24:43.108Z,9.67
2018-05-27T11:27:18.146Z,9.33
2018-05-27T11:29:53.066Z,8.07
2018-05-27T11:32:27.785Z,7.00
2018-05-27T11:35:02.282Z,8.37
2018-05-27T11:37:40.281Z,9.60
2018-05-27T11:40:14.945Z,8.00
2018-05-27T11:42:49.970Z,9.53
2018-05-27T11:45:24.556Z,8.93
2018-05-27T11:47:59.529Z,8.80
2018-05-27T11:50:34.438Z,8.50
2018-05-27T11:53:09.714Z,8.90
2018-05-27T11:55:44.418Z,8.80
2018-05-27T11:58:19.570Z,8.13
2018-05-27T12:00:54.803Z,8.60
2018-05-27T12:03:29.476Z,6.70
2018-05-27T12:06:04.404Z,7.43
2018-05-27T12:08:39.243Z,10.37
2018-05-27T12:11:13.769Z,7.77
2018-05-27T12:13:48.688Z,6.80
2018-05-27T12:16:23.577Z,7.80
2018-05-27T12:18:58.644Z,7.93
2018-05-27T12:21:33.482Z,8.23
2018-05-27T12:24:08.450Z,7.60
2018-05-27T12:26:43.364Z,6.73
2018-05-27T12:29:18.090Z,7.40
2018-05-27T12:31:53.194Z,9.50
2018-05-27T12:34:28.228Z,7.33
2018-05-27T12:37:03.561Z,6.70
2018-05-27T12:39:38.804Z,7.20
2018-05-27T12:42:13.649Z,7.20
2018-05-27T12:44:48.704Z,7.03
2018-05-27T12:47:23.380Z,7.13
2018-05-27T12:49:57.861Z,6.97
2018-05-27T12:52:32.989Z,6.60
2018-05-27T12:55:08.002Z,7.40
2018-05-27T12:57:42.827Z,7.67
2018-05-27T13:00:17.648Z,7.57
2018-05-27T13:02:52.699Z,7.87
2018-05-27T13:05:27.841Z,7.70
2018-05-27T13:08:02.324Z,7.17
2018-05-27T13:10:37.478Z,8.20
2018-05-27T13:13:12.641Z,8.10
2018-05-27T13:15:47.661Z,7.90
2018-05-27T13:18:22.709Z,7.67
2018-05-27T13:20:57.953Z,7.70
2018-05-27T13:23:32.777Z,7.90
2018-05-27T13:26:07.476Z,7.80
2018-05-27T13:28:42.444Z,7.27
2018-05-27T13:31:17.145Z,7.37
2018-05-27T13:33:51.925Z,7.23
2018-05-27T13:36:26.840Z,8.30
2018-05-27T13:39:01.738Z,7.83
2018-05-27T13:41:36.688Z,7.90
2018-05-27T13:44:11.541Z,8.10
2018-05-27T13:46:46.372Z,9.10
2018-05-27T13:49:21.420Z,7.77
2018-05-27T13:51:56.282Z,7.50
2018-05-27T13:54:31.429Z,8.40
2018-05-27T13:57:06.340Z,8.57
2018-05-27T13:59:41.134Z,8.13
2018-05-27T14:02:15.955Z,7.50
2018-05-27T14:04:50.845Z,9.20
2018-05-27T14:07:25.500Z,8.07
2018-05-27T14:10:00.409Z,8.20
2018-05-27T14:12:35.187Z,8.10
2018-05-27T14:15:09.407Z,7.93
2018-05-27T14:17:44.517Z,8.13
2018-05-27T14:20:19.575Z,7.60
2018-05-27T14:22:54.361Z,6.97
2018-05-27T14:25:29.376Z,7.67
2018-05-27T14:28:04.172Z,8.17
2018-05-27T14:30:38.537Z,8.00
2018-05-27T14:33:13.994Z,8.33
2018-05-27T14:35:48.885Z,8.10
2018-05-27T14:38:24.017Z,8.13
2018-05-27T14:40:58.817Z,8.27
2018-05-27T14:43:33.625Z,7.10
2018-05-27T14:46:08.409Z,8.43
2018-05-27T14:48:43.227Z,7.60
2018-05-27T14:51:18.089Z,8.23
2018-05-27T14:53:53.095Z,7.60
2018-05-27T14:56:27.977Z,8.70
2018-05-27T14:59:02.826Z,7.60
2018-05-27T15:01:37.780Z,8.50
2018-05-27T15:04:12.931Z,8.37
2018-05-27T15:06:47.609Z,7.10
2018-05-27T15:09:22.412Z,7.70
2018-05-27T15:11:57.431Z,8.03
2018-05-27T15:14:32.349Z,7.27
2018-05-27T15:17:07.252Z,7.80
2018-05-27T15:19:42.294Z,7.90
2018-05-27T15:22:16.847Z,9.00
2018-05-27T15:24:52.092Z,7.40
2018-05-27T15:27:26.836Z,8.30
2018-05-27T15:30:01.841Z,6.97
2018-05-27T15:32:36.801Z,8.77
2018-05-27T15:35:11.949Z,7.83
2018-05-27T15:37:46.657Z,7.40
2018-05-27T15:40:21.476Z,7.43
2018-05-27T15:42:56.285Z,7.83
2018-05-27T15:45:31.253Z,8.27
2018-05-27T15:48:05.860Z,7.87
2018-05-27T15:50:40.824Z,8.50
2018-05-27T15:53:15.709Z,7.53
2018-05-27T15:55:50.777Z,7.83
2018-05-27T15:58:25.725Z,8.97
2018-05-27T16:01:00.644Z,7.90
2018-05-27T16:03:35.453Z,7.77
2018-05-27T16:06:10.426Z,7.90
2018-05-27T16:08:45.180Z,8.20
2018-05-27T16:11:20.009Z,8.40
2018-05-27T16:13:54.966Z,8.60
2018-05-27T16:16:29.845Z,8.93
2018-05-27T16:19:04.312Z,8.33
2018-05-27T16:21:39.244Z,9.30
2018-05-27T16:24:14.359Z,8.73
2018-05-27T16:26:49.152Z,8.90
2018-05-27T16:29:23.803Z,9.83
2018-05-27T16:31:58.511Z,9.33
2018-05-27T16:34:33.248Z,8.60
2018-05-27T16:37:08.239Z,9.87
2018-05-27T16:39:43.433Z,10.40
2018-05-27T16:42:18.149Z,10.37
2018-05-27T16:44:53.593Z,9.07
2018-05-27T16:47:28.690Z,8.97
2018-05-27T16:53:00.941Z,11.13
2018-05-27T16:55:35.532Z,9.30
2018-05-27T16:58:10.689Z,9.03
2018-05-27T17:00:45.340Z,9.53
2018-05-27T17:03:20.005Z,10.23
2018-05-27T17:05:54.826Z,8.30
2018-05-27T17:08:38.816Z,10.53
2018-05-27T17:11:13.256Z,10.00
2018-05-27T17:13:47.964Z,11.03
2018-05-27T17:16:22.768Z,9.13
2018-05-27T17:18:57.608Z,11.17
2018-05-27T17:21:32.867Z,9.77
2018-05-27T17:24:07.905Z,9.80
2018-05-27T17:26:42.609Z,16.57
2018-05-27T17:29:17.911Z,9.87
2018-05-27T17:31:52.671Z,10.27
2018-05-27T17:34:27.621Z,10.30
2018-05-27T17:37:02.520Z,9.80
2018-05-27T17:39:37.761Z,10.00
2018-05-27T17:42:12.549Z,8.90
2018-05-27T17:44:47.609Z,10.13
2018-05-27T17:47:22.995Z,7.00
2018-05-27T17:49:58.249Z,7.37
2018-05-27T17:52:33.492Z,7.90
2018-05-27T17:55:08.849Z,10.13
2018-05-27T17:57:43.672Z,7.83
2018-05-27T18:00:18.549Z,7.70
2018-05-27T18:02:53.483Z,8.03
2018-05-27T18:05:28.593Z,10.40
2018-05-27T18:08:03.383Z,8.90
2018-05-27T18:10:38.128Z,9.80
2018-05-27T18:13:14.526Z,11.67
2018-05-27T18:15:49.897Z,12.70
2018-05-27T18:18:25.281Z,12.00
2018-05-27T18:21:00.629Z,12.90
2018-05-27T18:23:35.841Z,12.57
2018-05-27T18:26:10.664Z,14.83
2018-05-27T18:28:45.497Z,14.97
2018-05-27T18:31:20.531Z,13.67
2018-05-27T18:33:55.305Z,15.07
2018-05-27T18:36:30.109Z,15.60
2018-05-27T18:39:04.172Z,15.07
2018-05-27T18:41:40.050Z,15.80
2018-05-27T18:44:14.454Z,16.10
2018-05-27T18:46:49.368Z,14.03
2018-05-27T18:49:24.486Z,16.10
2018-05-27T18:51:59.925Z,15.50
2018-05-27T18:54:37.521Z,14.50
2018-05-27T18:57:12.108Z,12.90
2018-05-27T18:59:46.994Z,12.70
2018-05-27T19:02:21.924Z,11.93
2018-05-27T19:04:56.828Z,11.70
2018-05-27T19:07:31.805Z,12.50
2018-05-27T19:10:06.641Z,11.43
2018-05-27T19:12:41.528Z,13.90
2018-05-27T19:15:16.078Z,13.87
2018-05-27T19:17:51.205Z,12.00
2018-05-27T19:20:26.874Z,11.43
2018-05-27T19:23:01.625Z,11.33
2018-05-27T19:25:36.441Z,13.00
2018-05-27T19:28:11.233Z,14.00
2018-05-27T19:30:46.080Z,13.30
2018-05-27T19:33:20.984Z,13.10
2018-05-27T19:35:55.980Z,12.57
2018-05-27T19:38:31.009Z,13.23
2018-05-27T19:41:05.738Z,11.77
2018-05-27T19:43:40.660Z,12.50
2018-05-27T19:46:15.300Z,12.70
2018-05-27T19:48:50.072Z,13.50
2018-05-27T19:51:25.040Z,12.87
2018-05-27T19:54:00.160Z,13.60
2018-05-27T19:56:35.049Z,13.27
2018-05-27T19:59:09.858Z,13.63
2018-05-27T20:01:44.796Z,12.77
2018-05-27T20:04:19.312Z,13.77
2018-05-27T20:06:54.349Z,16.50
2018-05-27T20:09:29.390Z,19.77
2018-05-27T20:12:04.328Z,19.47
2018-05-27T20:14:39.145Z,19.83
2018-05-27T20:17:14.692Z,21.37
2018-05-27T20:19:49.428Z,21.47
2018-05-27T20:22:24.897Z,19.90
2018-05-27T20:25:00.456Z,20.57
2018-05-27T20:27:35.360Z,17.20
2018-05-27T20:30:10.289Z,16.53
2018-05-27T20:32:44.955Z,19.20
2018-05-27T20:35:19.738Z,20.23
2018-05-27T20:37:54.973Z,18.07
2018-05-27T20:40:29.921Z,17.43
2018-05-27T20:43:04.720Z,16.97
2018-05-27T20:45:39.404Z,16.23
2018-05-27T20:48:14.626Z,17.47
2018-05-27T20:50:49.308Z,18.53
2018-05-27T20:53:24.564Z,19.90
2018-05-27T20:55:59.829Z,17.80
2018-05-27T20:58:34.977Z,18.87
2018-05-27T21:01:09.816Z,19.83
2018-05-27T21:03:44.837Z,23.03
2018-05-27T21:06:20.051Z,17.93
2018-05-27T21:08:54.822Z,20.30
2018-05-27T21:11:29.295Z,21.23
2018-05-27T21:14:03.883Z,18.90
2018-05-27T21:16:39.197Z,18.43
2018-05-27T21:19:14.159Z,19.47
2018-05-27T21:21:49.106Z,18.60
2018-05-27T21:24:24.165Z,20.20
2018-05-27T21:26:58.908Z,18.83
2018-05-27T21:29:33.797Z,19.63
2018-05-27T21:32:08.753Z,18.03
2018-05-27T21:34:44.483Z,20.00
2018-05-27T21:37:18.899Z,20.53
2018-05-27T21:39:54.009Z,21.57
2018-05-27T21:42:28.529Z,22.93
2018-05-27T21:45:03.247Z,24.03
2018-05-27T21:47:38.089Z,21.93
2018-05-27T21:50:12.284Z,24.23
2018-05-27T21:52:46.788Z,24.60
2018-05-27T21:55:21.762Z,23.47
2018-05-27T21:57:56.562Z,23.40
2018-05-27T22:00:32.065Z,24.67
2018-05-27T22:03:06.524Z,24.83
2018-05-27T22:05:41.454Z,22.50
2018-05-27T22:08:16.148Z,25.00
2018-05-27T22:10:50.942Z,24.87
2018-05-27T22:13:25.801Z,24.17
2018-05-27T22:16:00.814Z,23.93
2018-05-27T22:18:36.066Z,24.67
2018-05-27T22:21:10.883Z,25.90
2018-05-27T22:23:45.741Z,24.70
2018-05-27T22:26:20.477Z,23.27
2018-05-27T22:28:55.297Z,26.00
2018-05-27T22:31:30.117Z,23.70
2018-05-27T22:34:04.819Z,24.97
2018-05-27T22:36:39.694Z,23.07
2018-05-27T22:39:14.514Z,24.77
2018-05-27T22:41:49.274Z,24.73
2018-05-27T22:44:24.245Z,24.63
2018-05-27T22:46:59.181Z,26.83
2018-05-27T22:49:34.228Z,26.07
2018-05-27T22:52:09.472Z,24.23
2018-05-27T22:54:44.224Z,24.67
2018-05-27T22:57:19.023Z,25.57
2018-05-27T22:59:53.978Z,24.17
2018-05-27T23:02:28.577Z,25.50
2018-05-27T23:05:03.579Z,23.93
2018-05-27T23:07:38.492Z,25.07
2018-05-27T23:10:13.458Z,22.97
2018-05-27T23:12:48.438Z,23.37
2018-05-27T23:15:23.449Z,26.27
2018-05-27T23:17:58.380Z,26.13
2018-05-27T23:20:33.121Z,29.83
2018-05-27T23:23:07.984Z,28.47
2018-05-27T23:25:42.805Z,29.30
2018-05-27T23:28:17.704Z,28.17
2018-05-27T23:30:52.557Z,26.70
2018-05-27T23:33:27.151Z,29.90
2018-05-27T23:36:02.097Z,26.50
2018-05-27T23:38:36.916Z,28.33
2018-05-27T23:41:11.849Z,28.07
2018-05-27T23:43:46.806Z,26.93
2018-05-27T23:46:21.761Z,25.90
2018-05-27T23:48:56.700Z,25.43
2018-05-27T23:51:31.769Z,25.53
2018-05-27T23:54:06.556Z,26.47
2018-05-27T23:56:41.574Z,25.00
2018-05-27T23:59:16.421Z,28.20
